Edward, North Carolina
Current Conditions -  °F | °C
As of 5:54 PM on Friday 28 Nov 2014 (Local Time) from KEWN Reporting Station
Clear Clear  
Wind Chill: 38°   Ceiling: Unl
Heat Index: 38°   Visibility: 10mi
Dew Point: 25°   Wind: 0mph
Humidity: 60%   Direction: NA
Pressure: 30.32"   Gusts: NA
Location:  35.32°N, 76.88°W
Report Text: KEWN 282254Z 00000KT 10SM CLR 03/M04 A3032 RMK AO2 SLP266 T00331039
Loading
Personal Weather Stations






























Interactive Weather Map New forecast layout! Learn more

10-Day Weather Forecast

Advertisements
Track Severe Weather on mobile